createdAt,value
2022-10-26T00:03:02.017Z,89
2022-10-26T00:13:02.037Z,89
2022-10-26T00:23:02.052Z,89
2022-10-26T00:33:01.991Z,89
2022-10-26T00:43:01.994Z,89
2022-10-26T00:53:01.976Z,89
2022-10-26T01:03:01.996Z,89
2022-10-26T01:13:01.959Z,89
2022-10-26T01:23:01.920Z,89
2022-10-26T01:33:01.870Z,89
2022-10-26T01:43:01.893Z,89
2022-10-26T01:53:01.888Z,89
2022-10-26T02:03:01.830Z,89
2022-10-26T02:13:01.848Z,89
2022-10-26T02:23:01.831Z,89
2022-10-26T02:33:01.780Z,89
2022-10-26T02:43:01.812Z,89
2022-10-26T02:53:01.798Z,89
2022-10-26T03:03:01.707Z,89
2022-10-26T03:13:01.745Z,89
2022-10-26T03:23:01.715Z,89
2022-10-26T03:33:01.659Z,89
2022-10-26T03:43:01.684Z,89
2022-10-26T03:53:01.634Z,89
2022-10-26T04:03:01.605Z,89
2022-10-26T04:13:01.638Z,89
2022-10-26T04:23:01.569Z,89
2022-10-26T04:33:01.559Z,89
2022-10-26T04:43:01.572Z,89
2022-10-26T04:53:01.525Z,89
2022-10-26T05:03:01.491Z,89
2022-10-26T05:13:01.529Z,89
2022-10-26T05:23:01.479Z,90
2022-10-26T05:33:01.454Z,90
2022-10-26T05:43:01.487Z,90
2022-10-26T05:53:01.440Z,90
2022-10-26T06:03:01.412Z,90
2022-10-26T06:13:01.430Z,90
2022-10-26T06:23:01.382Z,90
2022-10-26T06:33:06.303Z,90
2022-10-26T06:43:01.400Z,90
2022-10-26T06:53:01.325Z,90
2022-10-26T07:03:01.394Z,90
2022-10-26T07:13:01.332Z,90
2022-10-26T07:23:01.296Z,91
2022-10-26T07:33:01.273Z,91
2022-10-26T07:43:01.278Z,91
2022-10-26T07:53:01.229Z,91
2022-10-26T08:03:01.212Z,91
2022-10-26T08:13:01.239Z,90
2022-10-26T08:23:01.232Z,91
2022-10-26T08:33:01.166Z,90
2022-10-26T08:43:01.152Z,90
2022-10-26T08:53:01.149Z,90
2022-10-26T09:03:01.118Z,90
2022-10-26T09:13:01.093Z,90
2022-10-26T09:23:01.106Z,90
2022-10-26T09:33:01.060Z,90
2022-10-26T09:43:01.047Z,89
2022-10-26T09:53:01.080Z,90
2022-10-26T10:03:01.073Z,89
2022-10-26T10:13:00.990Z,87
2022-10-26T10:23:01.010Z,86
2022-10-26T10:33:00.974Z,84
2022-10-26T10:43:00.925Z,83
2022-10-26T10:53:00.949Z,81
2022-10-26T11:03:00.886Z,80
2022-10-26T11:13:00.850Z,79
2022-10-26T11:23:00.923Z,78
2022-10-26T11:33:00.810Z,77
2022-10-26T11:43:00.808Z,76
2022-10-26T11:53:00.792Z,75
2022-10-26T12:03:00.747Z,73
2022-10-26T12:13:00.730Z,73
2022-10-26T12:23:00.740Z,72
2022-10-26T12:33:00.696Z,71
2022-10-26T12:43:00.646Z,70
2022-10-26T12:53:00.678Z,69
2022-10-26T13:03:00.619Z,68
2022-10-26T13:13:00.637Z,68
2022-10-26T13:33:00.552Z,66
2022-10-26T13:43:00.563Z,65
2022-10-26T13:53:00.544Z,65
2022-10-26T14:03:00.483Z,64
2022-10-26T14:13:00.509Z,64
2022-10-26T14:23:00.487Z,63
2022-10-26T14:33:00.421Z,63
2022-10-26T14:43:00.427Z,63
2022-10-26T14:53:00.402Z,63
2022-10-26T15:03:00.360Z,64
2022-10-26T15:13:00.364Z,65
2022-10-26T15:23:00.366Z,65
2022-10-26T15:33:00.292Z,66
2022-10-26T15:43:00.319Z,67
2022-10-26T15:53:00.292Z,67
2022-10-26T16:03:00.224Z,68
2022-10-26T16:13:00.245Z,69
2022-10-26T16:23:00.237Z,69
2022-10-26T16:33:00.181Z,69
2022-10-26T16:43:00.187Z,70
2022-10-26T16:53:00.163Z,70
2022-10-26T17:03:00.104Z,71
2022-10-26T17:13:00.119Z,71
2022-10-26T17:23:00.095Z,72
2022-10-26T17:33:00.040Z,72
2022-10-26T17:43:00.091Z,72
2022-10-26T17:53:00.004Z,73
2022-10-26T18:02:59.985Z,73
2022-10-26T18:13:00.007Z,73
2022-10-26T18:22:59.960Z,74
2022-10-26T18:32:59.927Z,74
2022-10-26T18:42:59.952Z,75
2022-10-26T18:52:59.888Z,75
2022-10-26T19:02:59.866Z,75
2022-10-26T19:12:59.881Z,76
2022-10-26T19:22:59.821Z,76
2022-10-26T19:32:59.814Z,76
2022-10-26T19:42:59.819Z,77
2022-10-26T19:52:59.780Z,77
2022-10-26T20:02:59.742Z,77
2022-10-26T20:12:59.757Z,78
2022-10-26T20:22:59.721Z,78
2022-10-26T20:32:59.692Z,79
2022-10-26T20:42:59.714Z,79
2022-10-26T21:02:59.634Z,79
2022-10-26T21:12:59.672Z,80
2022-10-26T21:22:59.582Z,80
2022-10-26T21:32:59.591Z,80
2022-10-26T21:42:59.614Z,81
2022-10-26T21:52:59.567Z,81
2022-10-26T22:02:59.536Z,81
2022-10-26T22:12:59.519Z,81
2022-10-26T22:22:59.609Z,82
2022-10-26T22:32:59.489Z,82
2022-10-26T22:42:59.462Z,82
2022-10-26T22:52:59.481Z,82
2022-10-26T23:02:59.423Z,82
2022-10-26T23:12:59.442Z,83
2022-10-26T23:22:59.446Z,83
2022-10-26T23:32:59.379Z,83
2022-10-26T23:42:59.356Z,83
2022-10-26T23:52:59.601Z,83
